createdAt,value
2022-07-28T00:00:08.390Z,198.23
2022-07-28T00:02:35.418Z,207.77
2022-07-28T00:05:02.268Z,200.83
2022-07-28T00:07:28.966Z,198.93
2022-07-28T00:10:00.116Z,198.30
2022-07-28T00:12:27.274Z,198.52
2022-07-28T00:14:53.922Z,196.70
2022-07-28T00:17:20.583Z,203.50
2022-07-28T00:19:47.208Z,201.57
2022-07-28T00:22:13.799Z,222.02
2022-07-28T00:24:41.321Z,225.27
2022-07-28T00:27:08.290Z,228.55
2022-07-28T00:29:50.031Z,213.75
2022-07-28T00:32:18.570Z,214.97
2022-07-28T00:34:45.335Z,218.20
2022-07-28T00:37:14.695Z,230.52
2022-07-28T00:39:42.390Z,233.32
2022-07-28T00:42:09.245Z,237.82
2022-07-28T00:44:36.564Z,248.18
2022-07-28T00:47:03.285Z,223.30
2022-07-28T00:49:30.023Z,233.57
2022-07-28T00:51:57.254Z,225.07
2022-07-28T00:54:23.926Z,213.38
2022-07-28T00:56:51.008Z,222.03
2022-07-28T00:59:17.647Z,210.70
2022-07-28T01:01:44.565Z,212.38
2022-07-28T01:04:11.732Z,215.70
2022-07-28T01:07:16.951Z,222.05
2022-07-28T01:09:52.876Z,222.50
2022-07-28T01:12:30.138Z,213.30
2022-07-28T01:15:14.977Z,216.17
2022-07-28T01:18:04.997Z,212.82
2022-07-28T01:20:34.631Z,209.82
2022-07-28T01:23:32.003Z,219.80
2022-07-28T01:26:23.271Z,206.48
2022-07-28T01:29:20.157Z,207.73
2022-07-28T01:31:58.164Z,200.70
2022-07-28T01:34:32.007Z,204.02
2022-07-28T01:37:06.278Z,216.38
2022-07-28T01:39:36.061Z,209.40
2022-07-28T01:42:05.014Z,212.63
2022-07-28T01:44:34.416Z,211.38
2022-07-28T01:47:05.109Z,217.75
2022-07-28T01:49:32.393Z,223.85
2022-07-28T01:52:02.141Z,233.68
2022-07-28T01:54:30.384Z,214.20
2022-07-28T01:56:59.219Z,218.90
2022-07-28T01:59:30.221Z,218.73
2022-07-28T02:02:00.418Z,212.68
2022-07-28T02:04:31.118Z,222.35
2022-07-28T02:06:59.545Z,205.23
2022-07-28T02:09:27.330Z,207.90
2022-07-28T02:11:55.965Z,218.13
2022-07-28T02:14:25.692Z,222.02
2022-07-28T02:16:57.845Z,205.55
2022-07-28T02:19:26.045Z,219.13
2022-07-28T02:21:54.429Z,213.18
2022-07-28T02:24:26.286Z,217.15
2022-07-28T02:27:00.876Z,230.35
2022-07-28T02:29:50.347Z,219.38
2022-07-28T02:32:33.802Z,211.43
2022-07-28T02:35:09.676Z,225.95
2022-07-28T02:37:39.856Z,230.80
2022-07-28T02:40:12.189Z,205.82
2022-07-28T02:42:40.313Z,206.65
2022-07-28T02:45:11.737Z,234.02
2022-07-28T02:47:44.131Z,230.80
2022-07-28T02:50:14.308Z,225.23
2022-07-28T02:52:42.622Z,202.32
2022-07-28T02:55:12.169Z,201.80
2022-07-28T02:57:41.499Z,190.15
2022-07-28T03:00:08.775Z,206.30
2022-07-28T03:02:36.737Z,203.45
2022-07-28T03:05:07.715Z,211.77
2022-07-28T03:07:50.828Z,205.38
2022-07-28T03:10:33.695Z,212.05
2022-07-28T03:13:05.308Z,218.20
2022-07-28T03:15:32.223Z,217.27
2022-07-28T03:18:00.819Z,200.65
2022-07-28T03:20:28.011Z,204.32
2022-07-28T03:22:55.395Z,195.03
2022-07-28T03:25:40.486Z,208.32
2022-07-28T03:28:09.279Z,209.75
2022-07-28T03:30:41.862Z,209.20
2022-07-28T03:33:09.438Z,216.13
2022-07-28T03:35:44.936Z,209.57
2022-07-28T03:38:14.745Z,189.30
2022-07-28T03:40:46.976Z,198.20
2022-07-28T03:43:16.650Z,197.38
2022-07-28T03:45:46.718Z,190.67
2022-07-28T03:48:16.535Z,207.43
2022-07-28T03:50:43.315Z,194.82
2022-07-28T03:53:19.130Z,187.43
2022-07-28T03:55:50.583Z,191.82
2022-07-28T03:58:26.232Z,187.93
2022-07-28T04:00:55.963Z,200.82
2022-07-28T04:03:43.145Z,186.93
2022-07-28T04:06:09.637Z,179.43
2022-07-28T04:08:36.321Z,187.15
2022-07-28T04:11:03.197Z,183.77
2022-07-28T04:13:31.995Z,184.68
2022-07-28T04:15:59.988Z,183.15
2022-07-28T04:18:26.639Z,175.10
2022-07-28T04:20:53.265Z,177.00
2022-07-28T04:23:20.940Z,179.73
2022-07-28T04:25:47.961Z,171.85
2022-07-28T04:28:15.648Z,169.85
2022-07-28T04:30:44.126Z,164.25
2022-07-28T04:33:11.203Z,170.80
2022-07-28T04:35:37.913Z,168.13
2022-07-28T04:38:04.738Z,164.65
2022-07-28T04:40:33.927Z,160.13
2022-07-28T04:43:00.634Z,165.60
2022-07-28T04:45:27.341Z,162.70
2022-07-28T04:47:54.016Z,161.68
2022-07-28T04:50:21.551Z,169.18
2022-07-28T04:52:57.370Z,160.82
2022-07-28T04:55:24.475Z,166.90
2022-07-28T04:57:51.412Z,156.97
2022-07-28T05:00:18.674Z,166.03
2022-07-28T05:02:45.857Z,176.25
2022-07-28T05:05:13.530Z,177.35
2022-07-28T05:07:41.327Z,175.23
2022-07-28T05:10:10.315Z,158.82
2022-07-28T05:12:37.026Z,168.73
2022-07-28T05:15:04.994Z,162.07
2022-07-28T05:17:31.592Z,165.30
2022-07-28T05:19:58.377Z,165.73
2022-07-28T05:22:24.975Z,149.77
2022-07-28T05:24:51.639Z,154.32
2022-07-28T05:27:18.267Z,148.50
2022-07-28T05:29:47.719Z,132.88
2022-07-28T05:32:16.346Z,123.65
2022-07-28T05:34:43.752Z,124.10
2022-07-28T05:37:10.372Z,128.35
2022-07-28T05:39:37.581Z,111.47
2022-07-28T05:42:04.556Z,102.50
2022-07-28T05:44:37.217Z,105.88
2022-07-28T05:47:05.004Z,103.85
2022-07-28T05:49:31.715Z,79.35
2022-07-28T05:52:00.092Z,85.73
2022-07-28T05:54:26.780Z,67.57
2022-07-28T05:56:53.690Z,72.63
2022-07-28T05:59:20.334Z,64.43
2022-07-28T06:01:47.210Z,57.85
2022-07-28T06:04:26.597Z,55.70
2022-07-28T06:06:54.536Z,56.80
2022-07-28T06:09:21.149Z,57.70
2022-07-28T06:11:49.826Z,48.85
2022-07-28T06:14:16.776Z,62.35
2022-07-28T06:16:44.811Z,56.60
2022-07-28T06:19:11.564Z,48.35
2022-07-28T06:21:38.235Z,45.42
2022-07-28T06:24:05.393Z,52.70
2022-07-28T06:26:32.060Z,42.30
2022-07-28T06:28:58.734Z,41.30
2022-07-28T06:31:25.554Z,41.70
2022-07-28T06:33:52.183Z,32.90
2022-07-28T06:36:18.813Z,36.47
2022-07-28T06:38:45.601Z,29.85
2022-07-28T06:41:12.289Z,30.80
2022-07-28T06:43:39.447Z,26.42
2022-07-28T06:46:06.936Z,20.10
2022-07-28T06:48:34.234Z,24.60
2022-07-28T06:51:01.162Z,23.10
2022-07-28T06:53:32.390Z,15.88
2022-07-28T06:56:00.860Z,21.23
2022-07-28T06:58:27.504Z,22.15
2022-07-28T07:00:54.977Z,18.45
2022-07-28T07:03:21.721Z,18.45
2022-07-28T07:05:51.618Z,13.23
2022-07-28T07:08:20.833Z,16.55
2022-07-28T07:10:47.641Z,11.23
2022-07-28T07:13:14.296Z,20.33
2022-07-28T07:15:41.240Z,19.35
2022-07-28T07:18:08.207Z,13.30
2022-07-28T07:20:34.828Z,12.52
2022-07-28T07:23:01.680Z,10.73
2022-07-28T07:25:28.351Z,11.20
2022-07-28T07:27:55.027Z,12.20
2022-07-28T07:30:21.693Z,10.80
2022-07-28T07:32:48.422Z,9.90
2022-07-28T07:35:15.160Z,12.82
2022-07-28T07:37:41.826Z,9.80
2022-07-28T07:40:09.739Z,11.43
2022-07-28T07:42:36.615Z,12.27
2022-07-28T07:45:03.944Z,10.15
2022-07-28T07:47:31.108Z,10.40
2022-07-28T07:49:58.045Z,9.82
2022-07-28T07:52:27.100Z,10.10
2022-07-28T07:54:54.085Z,10.82
2022-07-28T07:57:23.402Z,9.80
2022-07-28T07:59:50.046Z,9.85
2022-07-28T08:02:16.699Z,8.95
2022-07-28T08:04:43.441Z,9.57
2022-07-28T08:07:10.287Z,6.93
2022-07-28T08:09:37.134Z,8.68
2022-07-28T08:12:04.106Z,7.95
2022-07-28T08:14:30.737Z,7.95
2022-07-28T08:17:07.879Z,6.90
2022-07-28T08:19:34.669Z,5.82
2022-07-28T08:22:02.476Z,5.57
2022-07-28T08:24:34.095Z,5.72
2022-07-28T08:27:02.326Z,6.50
2022-07-28T08:29:29.553Z,5.28
2022-07-28T08:31:56.545Z,6.17
2022-07-28T08:34:31.061Z,5.68
2022-07-28T08:37:00.715Z,6.70
2022-07-28T08:39:27.405Z,6.47
2022-07-28T08:42:18.042Z,5.45
2022-07-28T08:44:58.360Z,4.68
2022-07-28T08:47:40.615Z,5.18
2022-07-28T08:50:16.201Z,4.25
2022-07-28T08:52:45.537Z,4.35
2022-07-28T08:55:19.183Z,4.15
2022-07-28T08:57:46.723Z,4.70
2022-07-28T09:00:13.797Z,4.13
2022-07-28T09:02:47.038Z,4.43
2022-07-28T09:05:22.919Z,3.90
2022-07-28T09:07:54.615Z,3.78
2022-07-28T09:10:22.313Z,3.95
2022-07-28T09:12:49.056Z,3.55
2022-07-28T09:15:15.834Z,3.45
2022-07-28T09:17:43.140Z,3.42
2022-07-28T09:20:11.549Z,3.75
2022-07-28T09:22:56.514Z,3.28
2022-07-28T09:25:23.846Z,3.65
2022-07-28T09:27:51.849Z,3.55
2022-07-28T09:30:33.152Z,3.72
2022-07-28T09:33:41.902Z,3.50
2022-07-28T09:36:04.593Z,3.75
2022-07-28T09:38:43.211Z,3.90
2022-07-28T09:41:10.073Z,3.05
2022-07-28T09:43:37.927Z,3.03
2022-07-28T09:46:16.168Z,2.95
2022-07-28T09:48:51.775Z,2.60
2022-07-28T09:51:24.798Z,2.80
2022-07-28T09:53:52.459Z,2.38
2022-07-28T09:56:19.546Z,2.50
2022-07-28T09:59:00.540Z,2.63
2022-07-28T10:01:31.173Z,2.88
2022-07-28T10:04:04.295Z,2.30
2022-07-28T10:06:34.567Z,2.35
2022-07-28T10:09:05.457Z,2.60
2022-07-28T10:11:32.153Z,2.60
2022-07-28T10:14:00.306Z,2.53
2022-07-28T10:16:32.314Z,2.60
2022-07-28T10:19:01.649Z,2.50
2022-07-28T10:21:31.006Z,2.55
2022-07-28T10:24:04.625Z,2.45
2022-07-28T10:26:33.410Z,2.50
2022-07-28T10:29:05.786Z,2.20
2022-07-28T10:31:48.587Z,2.58
2022-07-28T10:34:24.641Z,2.90
2022-07-28T10:36:54.383Z,2.25
2022-07-28T10:39:23.931Z,2.42
2022-07-28T10:41:51.491Z,2.40
2022-07-28T10:44:19.839Z,2.90
2022-07-28T10:46:46.973Z,2.40
2022-07-28T10:49:14.861Z,2.27
2022-07-28T10:52:02.161Z,2.45
2022-07-28T10:54:33.355Z,2.42
2022-07-28T10:57:04.742Z,2.28
2022-07-28T10:59:58.632Z,2.63
2022-07-28T11:02:52.378Z,2.83
2022-07-28T11:05:39.643Z,2.60
2022-07-28T11:08:15.263Z,2.50
2022-07-28T11:10:50.091Z,2.20
2022-07-28T11:13:23.912Z,2.58
2022-07-28T11:15:57.641Z,2.47
2022-07-28T11:18:24.969Z,2.40
2022-07-28T11:20:58.703Z,2.47
2022-07-28T11:23:47.906Z,2.90
2022-07-28T11:26:20.897Z,2.80
2022-07-28T11:29:00.145Z,2.50
2022-07-28T11:31:47.774Z,2.60
2022-07-28T11:34:19.336Z,2.22
2022-07-28T11:36:58.937Z,2.45
2022-07-28T11:39:30.764Z,2.23
2022-07-28T11:42:28.254Z,2.17
2022-07-28T11:44:57.040Z,2.20
2022-07-28T11:47:25.731Z,2.17
2022-07-28T11:50:12.498Z,2.28
2022-07-28T11:52:40.188Z,2.08
2022-07-28T11:55:06.908Z,2.35
2022-07-28T11:57:41.601Z,2.17
2022-07-28T12:00:08.859Z,2.30
2022-07-28T12:02:35.750Z,2.00
2022-07-28T12:05:06.455Z,2.40
2022-07-28T12:07:35.758Z,2.72
2022-07-28T12:10:43.992Z,2.17
2022-07-28T12:13:09.332Z,2.20
2022-07-28T12:15:36.322Z,2.70
2022-07-28T12:18:03.148Z,2.47
2022-07-28T12:20:32.016Z,2.92
2022-07-28T12:23:02.648Z,2.25
2022-07-28T12:25:30.961Z,2.25
2022-07-28T12:28:02.032Z,2.00
2022-07-28T12:30:29.219Z,1.95
2022-07-28T12:32:56.001Z,1.90
2022-07-28T12:35:25.056Z,2.00
2022-07-28T12:37:52.090Z,2.17
2022-07-28T12:40:27.536Z,2.30
2022-07-28T12:42:54.355Z,2.28
2022-07-28T12:45:21.289Z,2.23
2022-07-28T12:47:48.282Z,1.80
2022-07-28T12:50:19.960Z,2.47
2022-07-28T12:53:08.322Z,2.30
2022-07-28T12:55:35.888Z,3.38
2022-07-28T12:58:03.247Z,2.80
2022-07-28T13:00:36.204Z,2.42
2022-07-28T13:03:26.313Z,2.30
2022-07-28T13:06:04.433Z,2.30
2022-07-28T13:08:47.772Z,2.20
2022-07-28T13:11:42.692Z,2.20
2022-07-28T13:14:03.338Z,2.22
2022-07-28T13:16:30.260Z,2.30
2022-07-28T13:19:05.805Z,2.90
2022-07-28T13:21:56.145Z,2.20
2022-07-28T13:24:26.761Z,2.70
2022-07-28T13:26:53.715Z,2.30
2022-07-28T13:29:20.467Z,2.30
2022-07-28T13:31:47.273Z,1.92
2022-07-28T13:34:14.914Z,2.17
2022-07-28T13:36:42.077Z,1.88
2022-07-28T13:39:10.776Z,2.40
2022-07-28T13:41:57.659Z,2.22
2022-07-28T13:44:24.309Z,2.20
2022-07-28T13:46:51.664Z,2.25
2022-07-28T13:49:21.312Z,2.20
2022-07-28T13:51:49.025Z,1.80
2022-07-28T13:54:19.030Z,2.20
2022-07-28T13:56:46.634Z,2.40
2022-07-28T13:59:13.753Z,2.15
2022-07-28T14:01:42.325Z,1.90
2022-07-28T14:04:14.624Z,2.10
2022-07-28T14:06:44.964Z,2.30
2022-07-28T14:09:12.974Z,2.10
2022-07-28T14:11:49.699Z,2.15
2022-07-28T14:14:25.235Z,2.05
2022-07-28T14:16:54.631Z,2.30
2022-07-28T14:19:23.605Z,2.45
2022-07-28T14:22:12.856Z,2.08
2022-07-28T14:24:44.294Z,2.20
2022-07-28T14:27:11.403Z,2.00
2022-07-28T14:29:40.337Z,2.30
2022-07-28T14:32:07.270Z,2.10
2022-07-28T14:34:34.622Z,2.38
2022-07-28T14:37:03.520Z,2.15
2022-07-28T14:39:35.213Z,2.05
2022-07-28T14:42:01.911Z,2.00
2022-07-28T14:44:28.588Z,1.70
2022-07-28T14:46:55.310Z,2.15
2022-07-28T14:49:22.019Z,2.35
2022-07-28T14:51:48.810Z,2.10
2022-07-28T14:54:16.008Z,1.90
2022-07-28T14:56:43.028Z,2.20
2022-07-28T14:59:09.703Z,3.30
2022-07-28T15:01:36.624Z,2.85
2022-07-28T15:04:04.154Z,2.05
2022-07-28T15:06:31.050Z,2.40
2022-07-28T15:08:58.550Z,2.30
2022-07-28T15:11:25.804Z,2.22
2022-07-28T15:13:52.591Z,2.65
2022-07-28T15:16:19.416Z,2.05
2022-07-28T15:18:46.069Z,2.20
2022-07-28T15:21:16.660Z,1.98
2022-07-28T15:23:44.154Z,1.80
2022-07-28T15:26:10.992Z,1.92
2022-07-28T15:28:37.838Z,2.10
2022-07-28T15:31:06.690Z,2.05
2022-07-28T15:33:43.849Z,1.92
2022-07-28T15:36:14.735Z,2.30
2022-07-28T15:38:41.541Z,2.08
2022-07-28T15:41:13.002Z,2.45
2022-07-28T15:43:39.825Z,2.00
2022-07-28T15:46:10.962Z,2.10
2022-07-28T15:48:39.659Z,1.80
2022-07-28T15:51:06.337Z,1.73
2022-07-28T15:53:34.453Z,2.20
2022-07-28T15:56:01.360Z,2.15
2022-07-28T15:58:27.956Z,2.40
2022-07-28T16:00:54.839Z,2.05
2022-07-28T16:03:24.768Z,1.90
2022-07-28T16:05:52.944Z,1.50
2022-07-28T16:08:22.969Z,2.33
2022-07-28T16:10:51.266Z,2.20
2022-07-28T16:13:22.760Z,3.10
2022-07-28T16:16:14.036Z,2.40
2022-07-28T16:18:42.816Z,2.47
2022-07-28T16:21:10.963Z,2.58
2022-07-28T16:23:38.081Z,2.20
2022-07-28T16:26:07.774Z,2.63
2022-07-28T16:28:35.024Z,2.10
2022-07-28T16:31:01.722Z,2.10
2022-07-28T16:33:33.129Z,2.40
2022-07-28T16:36:03.914Z,1.88
2022-07-28T16:38:30.783Z,1.95
2022-07-28T16:40:57.606Z,2.00
2022-07-28T16:43:24.862Z,1.90
2022-07-28T16:45:54.457Z,1.80
2022-07-28T16:48:21.284Z,1.88
2022-07-28T16:50:48.300Z,2.10
2022-07-28T16:53:16.420Z,1.77
2022-07-28T16:55:43.297Z,2.40
2022-07-28T16:58:09.956Z,1.77
2022-07-28T17:00:36.670Z,1.60
2022-07-28T17:03:03.369Z,2.08
2022-07-28T17:05:30.070Z,2.60
2022-07-28T17:07:56.809Z,2.00
2022-07-28T17:10:27.292Z,1.77
2022-07-28T17:12:54.677Z,1.98
2022-07-28T17:15:22.606Z,2.10
2022-07-28T17:17:53.142Z,1.90
2022-07-28T17:20:20.871Z,2.15
2022-07-28T17:22:50.532Z,2.20
2022-07-28T17:28:05.504Z,2.10
2022-07-28T17:30:33.153Z,2.08
2022-07-28T17:33:04.813Z,2.10
2022-07-28T17:35:35.135Z,1.98
2022-07-28T17:38:04.011Z,1.92
2022-07-28T17:40:30.891Z,2.15
2022-07-28T17:42:57.718Z,2.10
2022-07-28T17:45:24.853Z,2.00
2022-07-28T17:47:51.817Z,1.92
2022-07-28T17:50:19.019Z,2.30
2022-07-28T17:52:48.798Z,2.05
2022-07-28T17:55:57.515Z,1.90
2022-07-28T17:58:28.705Z,2.00
2022-07-28T18:01:10.417Z,2.10
2022-07-28T18:03:57.935Z,2.27
2022-07-28T18:06:34.486Z,2.30
2022-07-28T18:09:06.957Z,2.00
2022-07-28T18:11:57.164Z,1.90
2022-07-28T18:14:29.162Z,2.10
2022-07-28T18:16:56.604Z,2.50
2022-07-28T18:19:23.344Z,2.45
2022-07-28T18:21:50.237Z,1.80
2022-07-28T18:24:18.472Z,2.20
2022-07-28T18:26:45.559Z,2.15
2022-07-28T18:29:12.244Z,2.00
2022-07-28T18:31:45.508Z,2.08
2022-07-28T18:34:13.658Z,2.00
2022-07-28T18:36:40.679Z,1.83
2022-07-28T18:39:07.483Z,1.90
2022-07-28T18:41:45.968Z,2.67
2022-07-28T18:44:15.503Z,2.07
2022-07-28T18:46:42.555Z,2.05
2022-07-28T18:49:09.311Z,2.25
2022-07-28T18:51:36.129Z,2.00
2022-07-28T18:54:02.765Z,2.00
2022-07-28T18:56:29.344Z,2.00
2022-07-28T18:58:57.152Z,2.22
2022-07-28T19:01:23.925Z,2.55
2022-07-28T19:03:50.759Z,2.20
2022-07-28T19:06:17.357Z,2.20
2022-07-28T19:08:44.087Z,2.03
2022-07-28T19:11:10.666Z,2.22
2022-07-28T19:13:37.446Z,2.30
2022-07-28T19:16:04.559Z,2.20
2022-07-28T19:18:31.225Z,2.45
2022-07-28T19:20:57.911Z,3.00
2022-07-28T19:23:24.612Z,2.40
2022-07-28T19:25:51.715Z,2.28
2022-07-28T19:28:18.519Z,2.45
2022-07-28T19:30:45.231Z,2.70
2022-07-28T19:33:14.677Z,3.03
2022-07-28T19:35:45.497Z,2.50
2022-07-28T19:38:12.554Z,2.28
2022-07-28T19:40:41.412Z,2.27
2022-07-28T19:43:08.103Z,2.70
2022-07-28T19:45:37.229Z,2.40
2022-07-28T19:48:04.185Z,2.03
2022-07-28T19:50:31.075Z,2.30
2022-07-28T19:52:58.076Z,2.90
2022-07-28T19:55:26.972Z,2.50
2022-07-28T19:57:56.130Z,2.80
2022-07-28T20:00:22.871Z,2.60
2022-07-28T20:02:49.697Z,2.50
2022-07-28T20:05:16.887Z,2.28
2022-07-28T20:07:43.557Z,2.60
2022-07-28T20:10:10.306Z,2.42
2022-07-28T20:12:37.316Z,2.30
2022-07-28T20:15:05.718Z,2.22
2022-07-28T20:17:40.114Z,2.92
2022-07-28T20:20:12.086Z,2.47
2022-07-28T20:22:41.043Z,2.72
2022-07-28T20:25:09.441Z,2.53
2022-07-28T20:27:40.966Z,2.53
2022-07-28T20:30:10.304Z,2.55
2022-07-28T20:32:37.932Z,2.88
2022-07-28T20:35:05.912Z,2.30
2022-07-28T20:37:36.720Z,2.85
2022-07-28T20:40:08.073Z,2.85
2022-07-28T20:42:37.660Z,2.60
2022-07-28T20:45:05.156Z,2.88
2022-07-28T20:47:37.674Z,2.75
2022-07-28T20:50:05.257Z,2.45
2022-07-28T20:52:33.724Z,2.80
2022-07-28T20:55:04.466Z,2.83
2022-07-28T20:57:31.367Z,2.80
2022-07-28T20:59:58.046Z,3.60
2022-07-28T21:02:24.734Z,2.60
2022-07-28T21:04:52.006Z,2.83
2022-07-28T21:07:59.568Z,3.10
2022-07-28T21:10:06.941Z,3.45
2022-07-28T21:12:36.750Z,2.92
2022-07-28T21:15:10.600Z,2.80
2022-07-28T21:17:37.497Z,2.60
2022-07-28T21:20:06.113Z,2.90
2022-07-28T21:22:32.891Z,3.25
2022-07-28T21:24:59.512Z,2.80
2022-07-28T21:27:26.217Z,2.40
2022-07-28T21:32:18.751Z,3.30
2022-07-28T21:34:45.456Z,2.97
2022-07-28T21:37:13.001Z,3.42
2022-07-28T21:39:39.945Z,2.88
2022-07-28T21:42:08.464Z,3.03
2022-07-28T21:44:36.538Z,3.47
2022-07-28T21:47:03.723Z,3.13
2022-07-28T21:49:31.347Z,3.28
2022-07-28T21:51:58.346Z,2.60
2022-07-28T21:54:25.037Z,2.92
2022-07-28T21:56:51.884Z,2.67
2022-07-28T21:59:18.500Z,2.40
2022-07-28T22:01:45.161Z,2.83
2022-07-28T22:04:12.145Z,2.42
2022-07-28T22:06:38.944Z,2.60
2022-07-28T22:09:05.561Z,2.88
2022-07-28T22:11:32.199Z,3.25
2022-07-28T22:13:58.854Z,3.63
2022-07-28T22:16:25.511Z,3.80
2022-07-28T22:18:52.254Z,4.10
2022-07-28T22:21:18.843Z,3.40
2022-07-28T22:23:45.485Z,3.53
2022-07-28T22:26:12.189Z,3.50
2022-07-28T22:28:38.897Z,3.85
2022-07-28T22:31:09.655Z,3.60
2022-07-28T22:33:40.044Z,3.85
2022-07-28T22:36:08.695Z,3.40
2022-07-28T22:38:36.013Z,3.53
2022-07-28T22:41:02.907Z,3.93
2022-07-28T22:43:32.163Z,3.30
2022-07-28T22:45:58.958Z,3.50
2022-07-28T22:48:25.656Z,3.53
2022-07-28T22:50:52.429Z,3.47
2022-07-28T22:53:19.054Z,3.28
2022-07-28T22:58:30.074Z,4.30
2022-07-28T23:00:56.937Z,3.15
2022-07-28T23:03:25.690Z,3.25
2022-07-28T23:06:00.589Z,3.00
2022-07-28T23:08:27.642Z,3.17
2022-07-28T23:10:54.576Z,3.60
2022-07-28T23:13:21.187Z,3.30
2022-07-28T23:15:47.829Z,3.80
2022-07-28T23:18:14.593Z,3.72
2022-07-28T23:20:41.784Z,4.53
2022-07-28T23:23:08.846Z,5.53
2022-07-28T23:25:42.693Z,6.45
2022-07-28T23:28:10.273Z,9.15
2022-07-28T23:30:37.477Z,13.55
2022-07-28T23:33:05.537Z,15.38
2022-07-28T23:35:32.579Z,18.85
2022-07-28T23:37:59.176Z,21.97
2022-07-28T23:40:25.915Z,25.55
2022-07-28T23:42:52.575Z,31.10
2022-07-28T23:45:19.306Z,43.08
2022-07-28T23:47:45.934Z,54.03
2022-07-28T23:50:12.575Z,62.55
2022-07-28T23:52:39.155Z,76.63
2022-07-28T23:55:06.621Z,90.70
2022-07-28T23:57:33.321Z,106.00
